sensor_id;sensor_type;location;lat;lon;timestamp;P1;durP1;ratioP1;P2;durP2;ratioP2
36629;SDS011;36256;42.154;23.002;2022-10-31T00:01:09;12.20;;;3.90;;
36629;SDS011;36256;42.154;23.002;2022-10-31T00:03:44;8.82;;;3.42;;
36629;SDS011;36256;42.154;23.002;2022-10-31T00:06:11;8.43;;;3.30;;
36629;SDS011;36256;42.154;23.002;2022-10-31T00:08:37;9.73;;;3.80;;
36629;SDS011;36256;42.154;23.002;2022-10-31T00:11:08;7.68;;;3.72;;
36629;SDS011;36256;42.154;23.002;2022-10-31T00:13:35;6.20;;;3.30;;
36629;SDS011;36256;42.154;23.002;2022-10-31T00:16:01;16.37;;;3.67;;
36629;SDS011;36256;42.154;23.002;2022-10-31T00:18:28;10.63;;;3.60;;
36629;SDS011;36256;42.154;23.002;2022-10-31T00:21:01;7.10;;;3.63;;
36629;SDS011;36256;42.154;23.002;2022-10-31T00:23:29;9.30;;;3.38;;
36629;SDS011;36256;42.154;23.002;2022-10-31T00:25:59;10.20;;;3.30;;
36629;SDS011;36256;42.154;23.002;2022-10-31T00:28:28;5.53;;;3.45;;
36629;SDS011;36256;42.154;23.002;2022-10-31T00:31:02;8.05;;;3.67;;
36629;SDS011;36256;42.154;23.002;2022-10-31T00:33:32;9.40;;;3.80;;
36629;SDS011;36256;42.154;23.002;2022-10-31T00:36:00;7.32;;;3.58;;
36629;SDS011;36256;42.154;23.002;2022-10-31T00:38:27;9.68;;;3.63;;
36629;SDS011;36256;42.154;23.002;2022-10-31T00:40:53;10.23;;;4.13;;
36629;SDS011;36256;42.154;23.002;2022-10-31T00:43:20;11.50;;;4.17;;
36629;SDS011;36256;42.154;23.002;2022-10-31T00:45:46;8.00;;;3.37;;
36629;SDS011;36256;42.154;23.002;2022-10-31T00:48:13;9.87;;;3.53;;
36629;SDS011;36256;42.154;23.002;2022-10-31T00:50:39;9.17;;;4.37;;
36629;SDS011;36256;42.154;23.002;2022-10-31T00:53:06;5.95;;;3.40;;
36629;SDS011;36256;42.154;23.002;2022-10-31T00:55:33;6.97;;;3.67;;
36629;SDS011;36256;42.154;23.002;2022-10-31T00:58:00;7.18;;;3.67;;
36629;SDS011;36256;42.154;23.002;2022-10-31T01:00:27;9.55;;;3.88;;
36629;SDS011;36256;42.154;23.002;2022-10-31T01:02:54;8.43;;;3.88;;
36629;SDS011;36256;42.154;23.002;2022-10-31T01:05:20;6.63;;;3.80;;
36629;SDS011;36256;42.154;23.002;2022-10-31T01:07:47;8.17;;;4.00;;
36629;SDS011;36256;42.154;23.002;2022-10-31T01:10:13;9.60;;;3.83;;
36629;SDS011;36256;42.154;23.002;2022-10-31T01:12:42;7.47;;;3.50;;
36629;SDS011;36256;42.154;23.002;2022-10-31T01:15:11;9.27;;;3.53;;
36629;SDS011;36256;42.154;23.002;2022-10-31T01:17:39;10.52;;;4.15;;
36629;SDS011;36256;42.154;23.002;2022-10-31T01:20:07;8.25;;;3.95;;
36629;SDS011;36256;42.154;23.002;2022-10-31T01:22:34;7.50;;;3.67;;
36629;SDS011;36256;42.154;23.002;2022-10-31T01:25:01;5.83;;;3.57;;
36629;SDS011;36256;42.154;23.002;2022-10-31T01:27:28;6.47;;;3.10;;
36629;SDS011;36256;42.154;23.002;2022-10-31T01:29:54;5.03;;;3.57;;
36629;SDS011;36256;42.154;23.002;2022-10-31T01:32:21;9.53;;;3.67;;
36629;SDS011;36256;42.154;23.002;2022-10-31T01:34:48;8.10;;;4.00;;
36629;SDS011;36256;42.154;23.002;2022-10-31T01:37:14;7.20;;;3.53;;
36629;SDS011;36256;42.154;23.002;2022-10-31T01:39:41;8.17;;;3.50;;
36629;SDS011;36256;42.154;23.002;2022-10-31T01:42:09;9.90;;;3.80;;
36629;SDS011;36256;42.154;23.002;2022-10-31T01:44:52;4.80;;;3.13;;
36629;SDS011;36256;42.154;23.002;2022-10-31T01:47:43;5.40;;;3.45;;
36629;SDS011;36256;42.154;23.002;2022-10-31T01:50:24;9.70;;;3.38;;
36629;SDS011;36256;42.154;23.002;2022-10-31T01:52:54;5.88;;;3.40;;
36629;SDS011;36256;42.154;23.002;2022-10-31T01:55:25;8.20;;;3.47;;
36629;SDS011;36256;42.154;23.002;2022-10-31T01:58:00;8.20;;;3.42;;
36629;SDS011;36256;42.154;23.002;2022-10-31T02:00:31;6.53;;;3.30;;
36629;SDS011;36256;42.154;23.002;2022-10-31T02:02:58;5.70;;;3.25;;
36629;SDS011;36256;42.154;23.002;2022-10-31T02:05:28;12.13;;;5.57;;
36629;SDS011;36256;42.154;23.002;2022-10-31T02:08:06;9.75;;;3.80;;
36629;SDS011;36256;42.154;23.002;2022-10-31T02:10:38;6.43;;;3.17;;
36629;SDS011;36256;42.154;23.002;2022-10-31T02:13:06;8.70;;;3.47;;
36629;SDS011;36256;42.154;23.002;2022-10-31T02:18:01;6.05;;;3.08;;
36629;SDS011;36256;42.154;23.002;2022-10-31T02:20:32;8.30;;;3.25;;
36629;SDS011;36256;42.154;23.002;2022-10-31T02:25:47;7.30;;;3.75;;
36629;SDS011;36256;42.154;23.002;2022-10-31T02:31:00;11.25;;;3.78;;
36629;SDS011;36256;42.154;23.002;2022-10-31T02:33:57;13.38;;;4.00;;
36629;SDS011;36256;42.154;23.002;2022-10-31T02:36:38;6.55;;;3.60;;
36629;SDS011;36256;42.154;23.002;2022-10-31T02:39:12;7.78;;;3.65;;
36629;SDS011;36256;42.154;23.002;2022-10-31T02:44:22;11.70;;;4.78;;
36629;SDS011;36256;42.154;23.002;2022-10-31T02:47:11;10.80;;;4.55;;
36629;SDS011;36256;42.154;23.002;2022-10-31T02:49:48;11.75;;;5.03;;
36629;SDS011;36256;42.154;23.002;2022-10-31T02:52:27;10.07;;;5.43;;
36629;SDS011;36256;42.154;23.002;2022-10-31T02:54:55;10.88;;;5.00;;
36629;SDS011;36256;42.154;23.002;2022-10-31T02:57:27;14.35;;;5.00;;
36629;SDS011;36256;42.154;23.002;2022-10-31T03:00:06;8.15;;;4.95;;
36629;SDS011;36256;42.154;23.002;2022-10-31T03:05:40;10.68;;;5.63;;
36629;SDS011;36256;42.154;23.002;2022-10-31T03:08:28;8.98;;;5.47;;
36629;SDS011;36256;42.154;23.002;2022-10-31T03:11:05;13.82;;;6.10;;
36629;SDS011;36256;42.154;23.002;2022-10-31T03:13:56;13.88;;;6.88;;
36629;SDS011;36256;42.154;23.002;2022-10-31T03:19:00;11.73;;;6.78;;
36629;SDS011;36256;42.154;23.002;2022-10-31T03:21:50;12.63;;;7.50;;
36629;SDS011;36256;42.154;23.002;2022-10-31T03:24:26;14.52;;;8.13;;
36629;SDS011;36256;42.154;23.002;2022-10-31T03:26:57;12.48;;;7.75;;
36629;SDS011;36256;42.154;23.002;2022-10-31T03:29:27;14.40;;;8.10;;
36629;SDS011;36256;42.154;23.002;2022-10-31T03:32:04;16.85;;;8.40;;
36629;SDS011;36256;42.154;23.002;2022-10-31T03:34:53;17.80;;;8.00;;
36629;SDS011;36256;42.154;23.002;2022-10-31T03:37:24;16.92;;;8.38;;
36629;SDS011;36256;42.154;23.002;2022-10-31T03:39:53;16.60;;;8.52;;
36629;SDS011;36256;42.154;23.002;2022-10-31T03:42:23;14.95;;;7.88;;
36629;SDS011;36256;42.154;23.002;2022-10-31T03:45:02;14.82;;;7.90;;
36629;SDS011;36256;42.154;23.002;2022-10-31T03:47:42;12.25;;;8.13;;
36629;SDS011;36256;42.154;23.002;2022-10-31T03:50:10;15.48;;;7.90;;
36629;SDS011;36256;42.154;23.002;2022-10-31T03:52:41;13.07;;;8.57;;
36629;SDS011;36256;42.154;23.002;2022-10-31T03:55:15;11.05;;;8.27;;
36629;SDS011;36256;42.154;23.002;2022-10-31T03:57:48;12.98;;;8.57;;
36629;SDS011;36256;42.154;23.002;2022-10-31T04:00:20;13.38;;;8.80;;
36629;SDS011;36256;42.154;23.002;2022-10-31T04:02:53;13.15;;;9.15;;
36629;SDS011;36256;42.154;23.002;2022-10-31T04:05:24;16.10;;;8.45;;
36629;SDS011;36256;42.154;23.002;2022-10-31T04:07:52;15.90;;;8.97;;
36629;SDS011;36256;42.154;23.002;2022-10-31T04:10:21;17.52;;;8.70;;
36629;SDS011;36256;42.154;23.002;2022-10-31T04:13:01;13.82;;;8.82;;
36629;SDS011;36256;42.154;23.002;2022-10-31T04:15:32;16.08;;;8.30;;
36629;SDS011;36256;42.154;23.002;2022-10-31T04:18:00;16.92;;;8.75;;
36629;SDS011;36256;42.154;23.002;2022-10-31T04:20:30;12.57;;;7.88;;
36629;SDS011;36256;42.154;23.002;2022-10-31T04:23:02;15.75;;;8.73;;
36629;SDS011;36256;42.154;23.002;2022-10-31T04:25:29;14.63;;;7.90;;
36629;SDS011;36256;42.154;23.002;2022-10-31T04:27:56;14.30;;;8.10;;
36629;SDS011;36256;42.154;23.002;2022-10-31T04:30:23;12.57;;;7.38;;
36629;SDS011;36256;42.154;23.002;2022-10-31T04:32:50;12.80;;;6.50;;
36629;SDS011;36256;42.154;23.002;2022-10-31T04:35:16;18.37;;;6.70;;
36629;SDS011;36256;42.154;23.002;2022-10-31T04:37:43;10.27;;;7.17;;
36629;SDS011;36256;42.154;23.002;2022-10-31T04:40:10;12.87;;;7.67;;
36629;SDS011;36256;42.154;23.002;2022-10-31T04:42:37;16.13;;;8.15;;
36629;SDS011;36256;42.154;23.002;2022-10-31T04:45:03;15.65;;;8.23;;
36629;SDS011;36256;42.154;23.002;2022-10-31T04:47:31;15.07;;;8.45;;
36629;SDS011;36256;42.154;23.002;2022-10-31T04:49:59;14.52;;;9.68;;
36629;SDS011;36256;42.154;23.002;2022-10-31T04:52:26;16.90;;;9.52;;
36629;SDS011;36256;42.154;23.002;2022-10-31T04:54:53;17.58;;;10.68;;
36629;SDS011;36256;42.154;23.002;2022-10-31T04:57:19;14.73;;;9.33;;
36629;SDS011;36256;42.154;23.002;2022-10-31T04:59:46;17.90;;;9.67;;
36629;SDS011;36256;42.154;23.002;2022-10-31T05:02:12;22.50;;;11.43;;
36629;SDS011;36256;42.154;23.002;2022-10-31T05:04:39;25.13;;;10.43;;
36629;SDS011;36256;42.154;23.002;2022-10-31T05:07:05;21.45;;;10.18;;
36629;SDS011;36256;42.154;23.002;2022-10-31T05:09:32;21.83;;;10.10;;
36629;SDS011;36256;42.154;23.002;2022-10-31T05:11:58;16.47;;;9.30;;
36629;SDS011;36256;42.154;23.002;2022-10-31T05:14:25;14.93;;;9.20;;
36629;SDS011;36256;42.154;23.002;2022-10-31T05:16:51;25.57;;;10.70;;
36629;SDS011;36256;42.154;23.002;2022-10-31T05:19:18;27.90;;;12.48;;
36629;SDS011;36256;42.154;23.002;2022-10-31T05:21:44;25.05;;;13.07;;
36629;SDS011;36256;42.154;23.002;2022-10-31T05:24:11;19.90;;;12.83;;
36629;SDS011;36256;42.154;23.002;2022-10-31T05:26:38;28.00;;;12.33;;
36629;SDS011;36256;42.154;23.002;2022-10-31T05:29:04;16.93;;;10.97;;
36629;SDS011;36256;42.154;23.002;2022-10-31T05:31:31;19.37;;;10.40;;
36629;SDS011;36256;42.154;23.002;2022-10-31T05:33:57;17.40;;;10.17;;
36629;SDS011;36256;42.154;23.002;2022-10-31T05:36:24;20.70;;;10.18;;
36629;SDS011;36256;42.154;23.002;2022-10-31T05:38:50;15.90;;;9.90;;
36629;SDS011;36256;42.154;23.002;2022-10-31T05:41:17;23.80;;;11.73;;
36629;SDS011;36256;42.154;23.002;2022-10-31T05:43:44;18.85;;;11.27;;
36629;SDS011;36256;42.154;23.002;2022-10-31T05:46:11;22.63;;;9.95;;
36629;SDS011;36256;42.154;23.002;2022-10-31T05:48:38;24.13;;;11.27;;
36629;SDS011;36256;42.154;23.002;2022-10-31T05:51:04;29.13;;;14.57;;
36629;SDS011;36256;42.154;23.002;2022-10-31T05:53:31;19.63;;;10.67;;
36629;SDS011;36256;42.154;23.002;2022-10-31T05:55:57;24.00;;;10.40;;
36629;SDS011;36256;42.154;23.002;2022-10-31T05:58:24;18.07;;;10.77;;
36629;SDS011;36256;42.154;23.002;2022-10-31T06:00:50;18.37;;;11.20;;
36629;SDS011;36256;42.154;23.002;2022-10-31T06:03:17;17.47;;;11.70;;
36629;SDS011;36256;42.154;23.002;2022-10-31T06:05:44;21.40;;;11.53;;
36629;SDS011;36256;42.154;23.002;2022-10-31T06:08:17;23.60;;;11.60;;
36629;SDS011;36256;42.154;23.002;2022-10-31T06:10:44;20.17;;;12.27;;
36629;SDS011;36256;42.154;23.002;2022-10-31T06:13:10;19.23;;;11.40;;
36629;SDS011;36256;42.154;23.002;2022-10-31T06:15:37;21.60;;;10.70;;
36629;SDS011;36256;42.154;23.002;2022-10-31T06:18:05;19.55;;;10.85;;
36629;SDS011;36256;42.154;23.002;2022-10-31T06:20:32;26.58;;;11.10;;
36629;SDS011;36256;42.154;23.002;2022-10-31T06:22:59;26.02;;;11.93;;
36629;SDS011;36256;42.154;23.002;2022-10-31T06:25:26;21.98;;;10.52;;
36629;SDS011;36256;42.154;23.002;2022-10-31T06:27:53;19.73;;;10.45;;
36629;SDS011;36256;42.154;23.002;2022-10-31T06:30:20;18.80;;;12.10;;
36629;SDS011;36256;42.154;23.002;2022-10-31T06:32:47;22.38;;;10.05;;
36629;SDS011;36256;42.154;23.002;2022-10-31T06:35:15;22.83;;;10.35;;
36629;SDS011;36256;42.154;23.002;2022-10-31T06:37:42;20.57;;;10.00;;
36629;SDS011;36256;42.154;23.002;2022-10-31T06:40:13;16.70;;;9.35;;
36629;SDS011;36256;42.154;23.002;2022-10-31T06:42:39;20.10;;;9.33;;
36629;SDS011;36256;42.154;23.002;2022-10-31T06:45:06;21.63;;;9.23;;
36629;SDS011;36256;42.154;23.002;2022-10-31T06:47:33;19.58;;;9.32;;
36629;SDS011;36256;42.154;23.002;2022-10-31T06:50:11;15.98;;;8.90;;
36629;SDS011;36256;42.154;23.002;2022-10-31T06:52:37;18.70;;;9.37;;
36629;SDS011;36256;42.154;23.002;2022-10-31T06:55:04;24.07;;;11.10;;
36629;SDS011;36256;42.154;23.002;2022-10-31T06:57:30;21.55;;;9.90;;
36629;SDS011;36256;42.154;23.002;2022-10-31T06:59:57;17.33;;;9.53;;
36629;SDS011;36256;42.154;23.002;2022-10-31T07:02:23;19.97;;;9.50;;
36629;SDS011;36256;42.154;23.002;2022-10-31T07:04:50;19.10;;;9.87;;
36629;SDS011;36256;42.154;23.002;2022-10-31T07:07:17;17.88;;;10.68;;
36629;SDS011;36256;42.154;23.002;2022-10-31T07:09:43;23.60;;;11.18;;
36629;SDS011;36256;42.154;23.002;2022-10-31T07:12:10;47.27;;;19.10;;
36629;SDS011;36256;42.154;23.002;2022-10-31T07:14:36;21.90;;;11.60;;
36629;SDS011;36256;42.154;23.002;2022-10-31T07:17:03;18.00;;;10.37;;
36629;SDS011;36256;42.154;23.002;2022-10-31T07:19:29;20.13;;;10.63;;
36629;SDS011;36256;42.154;23.002;2022-10-31T07:21:56;24.50;;;9.60;;
36629;SDS011;36256;42.154;23.002;2022-10-31T07:24:23;20.67;;;9.80;;
36629;SDS011;36256;42.154;23.002;2022-10-31T07:26:49;20.70;;;9.30;;
36629;SDS011;36256;42.154;23.002;2022-10-31T07:29:16;28.10;;;12.47;;
36629;SDS011;36256;42.154;23.002;2022-10-31T07:31:42;34.33;;;18.07;;
36629;SDS011;36256;42.154;23.002;2022-10-31T07:34:10;32.10;;;11.82;;
36629;SDS011;36256;42.154;23.002;2022-10-31T07:36:36;32.80;;;14.53;;
36629;SDS011;36256;42.154;23.002;2022-10-31T07:39:03;20.88;;;10.43;;
36629;SDS011;36256;42.154;23.002;2022-10-31T07:41:30;27.77;;;12.13;;
36629;SDS011;36256;42.154;23.002;2022-10-31T07:43:56;20.43;;;9.70;;
36629;SDS011;36256;42.154;23.002;2022-10-31T07:46:23;19.50;;;7.78;;
36629;SDS011;36256;42.154;23.002;2022-10-31T07:48:49;23.27;;;7.87;;
36629;SDS011;36256;42.154;23.002;2022-10-31T07:51:16;23.27;;;7.80;;
36629;SDS011;36256;42.154;23.002;2022-10-31T07:53:42;17.83;;;7.40;;
36629;SDS011;36256;42.154;23.002;2022-10-31T07:56:09;15.05;;;6.85;;
36629;SDS011;36256;42.154;23.002;2022-10-31T07:58:35;16.90;;;7.33;;
36629;SDS011;36256;42.154;23.002;2022-10-31T08:01:02;11.80;;;7.03;;
36629;SDS011;36256;42.154;23.002;2022-10-31T08:03:28;16.42;;;6.55;;
36629;SDS011;36256;42.154;23.002;2022-10-31T08:05:56;11.13;;;6.07;;
36629;SDS011;36256;42.154;23.002;2022-10-31T08:08:22;11.48;;;6.43;;
36629;SDS011;36256;42.154;23.002;2022-10-31T08:40:27;11.68;;;5.05;;
36629;SDS011;36256;42.154;23.002;2022-10-31T08:42:59;11.85;;;4.72;;
36629;SDS011;36256;42.154;23.002;2022-10-31T08:45:35;9.57;;;5.00;;
36629;SDS011;36256;42.154;23.002;2022-10-31T08:48:02;10.55;;;4.43;;
36629;SDS011;36256;42.154;23.002;2022-10-31T08:50:32;7.35;;;4.65;;
36629;SDS011;36256;42.154;23.002;2022-10-31T08:53:01;9.07;;;3.65;;
36629;SDS011;36256;42.154;23.002;2022-10-31T08:55:32;9.85;;;3.17;;
36629;SDS011;36256;42.154;23.002;2022-10-31T08:58:03;9.10;;;3.15;;
36629;SDS011;36256;42.154;23.002;2022-10-31T09:00:31;5.63;;;2.65;;
36629;SDS011;36256;42.154;23.002;2022-10-31T09:03:03;11.98;;;2.90;;
36629;SDS011;36256;42.154;23.002;2022-10-31T09:05:31;9.52;;;2.92;;
36629;SDS011;36256;42.154;23.002;2022-10-31T09:07:59;8.13;;;2.72;;
36629;SDS011;36256;42.154;23.002;2022-10-31T09:10:28;9.30;;;3.15;;
36629;SDS011;36256;42.154;23.002;2022-10-31T09:13:10;7.15;;;2.38;;
36629;SDS011;36256;42.154;23.002;2022-10-31T09:15:38;10.70;;;3.17;;
36629;SDS011;36256;42.154;23.002;2022-10-31T09:18:06;9.00;;;2.88;;
36629;SDS011;36256;42.154;23.002;2022-10-31T09:20:34;9.45;;;3.00;;
36629;SDS011;36256;42.154;23.002;2022-10-31T09:23:06;7.50;;;2.60;;
36629;SDS011;36256;42.154;23.002;2022-10-31T09:25:35;6.78;;;2.80;;
36629;SDS011;36256;42.154;23.002;2022-10-31T09:28:03;6.60;;;2.70;;
36629;SDS011;36256;42.154;23.002;2022-10-31T09:30:31;6.75;;;2.50;;
36629;SDS011;36256;42.154;23.002;2022-10-31T09:33:00;8.88;;;2.72;;
36629;SDS011;36256;42.154;23.002;2022-10-31T09:35:28;5.93;;;3.00;;
36629;SDS011;36256;42.154;23.002;2022-10-31T09:37:58;8.20;;;2.67;;
36629;SDS011;36256;42.154;23.002;2022-10-31T09:40:35;8.80;;;2.55;;
36629;SDS011;36256;42.154;23.002;2022-10-31T09:54:41;8.35;;;2.75;;
36629;SDS011;36256;42.154;23.002;2022-10-31T09:57:12;7.40;;;2.60;;
36629;SDS011;36256;42.154;23.002;2022-10-31T09:59:43;9.40;;;2.85;;
36629;SDS011;36256;42.154;23.002;2022-10-31T10:02:19;5.72;;;2.72;;
36629;SDS011;36256;42.154;23.002;2022-10-31T10:10:13;8.40;;;2.63;;
36629;SDS011;36256;42.154;23.002;2022-10-31T10:13:01;8.88;;;2.80;;
36629;SDS011;36256;42.154;23.002;2022-10-31T10:26:13;7.65;;;2.42;;
36629;SDS011;36256;42.154;23.002;2022-10-31T10:28:44;7.10;;;2.47;;
36629;SDS011;36256;42.154;23.002;2022-10-31T10:31:24;8.60;;;2.50;;
36629;SDS011;36256;42.154;23.002;2022-10-31T10:34:01;7.38;;;2.63;;
36629;SDS011;36256;42.154;23.002;2022-10-31T10:36:37;9.60;;;2.58;;
36629;SDS011;36256;42.154;23.002;2022-10-31T10:39:30;7.93;;;2.80;;
36629;SDS011;36256;42.154;23.002;2022-10-31T10:42:07;50.08;;;5.07;;
36629;SDS011;36256;42.154;23.002;2022-10-31T10:44:57;8.02;;;2.42;;
36629;SDS011;36256;42.154;23.002;2022-10-31T10:47:43;5.95;;;2.42;;
36629;SDS011;36256;42.154;23.002;2022-10-31T10:50:20;6.30;;;2.28;;
36629;SDS011;36256;42.154;23.002;2022-10-31T10:55:36;10.25;;;2.75;;
36629;SDS011;36256;42.154;23.002;2022-10-31T10:58:09;9.48;;;2.50;;
36629;SDS011;36256;42.154;23.002;2022-10-31T11:00:40;13.20;;;2.55;;
36629;SDS011;36256;42.154;23.002;2022-10-31T11:03:09;11.00;;;2.88;;
36629;SDS011;36256;42.154;23.002;2022-10-31T11:05:38;8.13;;;2.10;;
36629;SDS011;36256;42.154;23.002;2022-10-31T11:08:09;8.43;;;2.45;;
36629;SDS011;36256;42.154;23.002;2022-10-31T11:10:35;8.52;;;2.15;;
36629;SDS011;36256;42.154;23.002;2022-10-31T11:18:20;8.63;;;2.58;;
36629;SDS011;36256;42.154;23.002;2022-10-31T11:20:56;16.52;;;2.47;;
36629;SDS011;36256;42.154;23.002;2022-10-31T11:23:25;10.10;;;2.33;;
36629;SDS011;36256;42.154;23.002;2022-10-31T11:26:00;10.07;;;2.70;;
36629;SDS011;36256;42.154;23.002;2022-10-31T11:28:29;11.40;;;2.65;;
36629;SDS011;36256;42.154;23.002;2022-10-31T11:30:58;12.15;;;2.90;;
36629;SDS011;36256;42.154;23.002;2022-10-31T11:33:28;12.27;;;2.58;;
36629;SDS011;36256;42.154;23.002;2022-10-31T11:35:58;8.90;;;2.50;;
36629;SDS011;36256;42.154;23.002;2022-10-31T11:38:30;6.45;;;2.40;;
36629;SDS011;36256;42.154;23.002;2022-10-31T11:41:18;8.18;;;2.40;;
36629;SDS011;36256;42.154;23.002;2022-10-31T11:43:53;11.93;;;4.20;;
36629;SDS011;36256;42.154;23.002;2022-10-31T11:46:40;10.95;;;2.88;;
36629;SDS011;36256;42.154;23.002;2022-10-31T11:49:19;21.50;;;3.65;;
36629;SDS011;36256;42.154;23.002;2022-10-31T11:51:55;13.52;;;3.00;;
36629;SDS011;36256;42.154;23.002;2022-10-31T11:54:28;18.92;;;5.00;;
36629;SDS011;36256;42.154;23.002;2022-10-31T11:56:57;14.00;;;2.95;;
36629;SDS011;36256;42.154;23.002;2022-10-31T11:59:27;12.82;;;2.80;;
36629;SDS011;36256;42.154;23.002;2022-10-31T12:01:56;10.77;;;2.78;;
36629;SDS011;36256;42.154;23.002;2022-10-31T12:07:01;7.35;;;2.72;;
36629;SDS011;36256;42.154;23.002;2022-10-31T12:09:29;5.35;;;2.30;;
36629;SDS011;36256;42.154;23.002;2022-10-31T12:15:04;15.40;;;2.58;;
36629;SDS011;36256;42.154;23.002;2022-10-31T12:18:11;8.60;;;2.22;;
36629;SDS011;36256;42.154;23.002;2022-10-31T12:23:16;11.30;;;2.50;;
36629;SDS011;36256;42.154;23.002;2022-10-31T12:29:47;21.23;;;2.83;;
36629;SDS011;36256;42.154;23.002;2022-10-31T12:46:02;13.95;;;2.58;;
36629;SDS011;36256;42.154;23.002;2022-10-31T12:51:18;12.23;;;2.20;;
36629;SDS011;36256;42.154;23.002;2022-10-31T13:07:11;7.65;;;1.52;;
36629;SDS011;36256;42.154;23.002;2022-10-31T13:12:29;9.57;;;1.73;;
36629;SDS011;36256;42.154;23.002;2022-10-31T13:15:04;7.30;;;1.75;;
36629;SDS011;36256;42.154;23.002;2022-10-31T13:17:43;5.73;;;1.90;;
36629;SDS011;36256;42.154;23.002;2022-10-31T13:23:05;8.98;;;1.73;;
36629;SDS011;36256;42.154;23.002;2022-10-31T13:25:54;6.75;;;2.00;;
36629;SDS011;36256;42.154;23.002;2022-10-31T13:28:31;7.22;;;1.70;;
36629;SDS011;36256;42.154;23.002;2022-10-31T13:31:03;8.48;;;1.80;;
36629;SDS011;36256;42.154;23.002;2022-10-31T13:33:30;5.03;;;1.60;;
36629;SDS011;36256;42.154;23.002;2022-10-31T13:38:37;7.88;;;1.65;;
36629;SDS011;36256;42.154;23.002;2022-10-31T13:46:53;6.43;;;1.88;;
36629;SDS011;36256;42.154;23.002;2022-10-31T13:54:45;10.07;;;1.90;;
36629;SDS011;36256;42.154;23.002;2022-10-31T13:57:21;12.93;;;1.70;;
36629;SDS011;36256;42.154;23.002;2022-10-31T14:27:54;11.90;;;1.98;;
36629;SDS011;36256;42.154;23.002;2022-10-31T14:30:22;8.13;;;1.80;;
36629;SDS011;36256;42.154;23.002;2022-10-31T14:32:55;7.85;;;2.00;;
36629;SDS011;36256;42.154;23.002;2022-10-31T14:35:53;6.10;;;2.03;;
36629;SDS011;36256;42.154;23.002;2022-10-31T14:47:35;5.20;;;1.92;;
36629;SDS011;36256;42.154;23.002;2022-10-31T14:53:11;9.32;;;2.40;;
36629;SDS011;36256;42.154;23.002;2022-10-31T14:55:45;9.05;;;2.00;;
36629;SDS011;36256;42.154;23.002;2022-10-31T14:58:17;9.02;;;2.10;;
36629;SDS011;36256;42.154;23.002;2022-10-31T15:00:48;6.38;;;2.17;;
36629;SDS011;36256;42.154;23.002;2022-10-31T15:03:21;9.50;;;2.42;;
36629;SDS011;36256;42.154;23.002;2022-10-31T15:05:52;7.72;;;2.45;;
36629;SDS011;36256;42.154;23.002;2022-10-31T15:11:13;18.25;;;2.88;;
36629;SDS011;36256;42.154;23.002;2022-10-31T15:13:52;15.35;;;2.30;;
36629;SDS011;36256;42.154;23.002;2022-10-31T15:16:34;9.55;;;2.80;;
36629;SDS011;36256;42.154;23.002;2022-10-31T15:19:03;14.23;;;2.85;;
36629;SDS011;36256;42.154;23.002;2022-10-31T15:21:32;12.90;;;2.20;;
36629;SDS011;36256;42.154;23.002;2022-10-31T15:24:00;8.52;;;2.10;;
36629;SDS011;36256;42.154;23.002;2022-10-31T15:26:38;9.40;;;2.33;;
36629;SDS011;36256;42.154;23.002;2022-10-31T15:29:13;8.13;;;2.30;;
36629;SDS011;36256;42.154;23.002;2022-10-31T15:34:19;16.30;;;3.83;;
36629;SDS011;36256;42.154;23.002;2022-10-31T15:36:50;14.80;;;3.53;;
36629;SDS011;36256;42.154;23.002;2022-10-31T15:39:17;8.20;;;2.88;;
36629;SDS011;36256;42.154;23.002;2022-10-31T15:41:49;11.52;;;2.40;;
36629;SDS011;36256;42.154;23.002;2022-10-31T15:44:36;10.48;;;2.97;;
36629;SDS011;36256;42.154;23.002;2022-10-31T15:47:13;11.07;;;2.80;;
36629;SDS011;36256;42.154;23.002;2022-10-31T15:50:04;27.20;;;3.97;;
36629;SDS011;36256;42.154;23.002;2022-10-31T15:52:42;17.55;;;3.97;;
36629;SDS011;36256;42.154;23.002;2022-10-31T15:57:42;19.80;;;5.25;;
36629;SDS011;36256;42.154;23.002;2022-10-31T16:00:22;18.77;;;6.25;;
36629;SDS011;36256;42.154;23.002;2022-10-31T16:05:53;14.55;;;5.03;;
36629;SDS011;36256;42.154;23.002;2022-10-31T16:10:56;25.15;;;12.70;;
36629;SDS011;36256;42.154;23.002;2022-10-31T16:13:26;14.43;;;5.65;;
36629;SDS011;36256;42.154;23.002;2022-10-31T16:15:56;13.38;;;3.67;;
36629;SDS011;36256;42.154;23.002;2022-10-31T16:18:45;12.43;;;3.08;;
36629;SDS011;36256;42.154;23.002;2022-10-31T16:21:12;14.75;;;3.50;;
36629;SDS011;36256;42.154;23.002;2022-10-31T16:23:43;15.23;;;3.28;;
36629;SDS011;36256;42.154;23.002;2022-10-31T16:26:23;13.55;;;2.90;;
36629;SDS011;36256;42.154;23.002;2022-10-31T16:28:52;10.35;;;3.22;;
36629;SDS011;36256;42.154;23.002;2022-10-31T16:31:37;8.68;;;2.78;;
36629;SDS011;36256;42.154;23.002;2022-10-31T16:34:12;6.38;;;3.03;;
36629;SDS011;36256;42.154;23.002;2022-10-31T16:36:51;11.20;;;2.70;;
36629;SDS011;36256;42.154;23.002;2022-10-31T16:39:18;13.05;;;3.40;;
36629;SDS011;36256;42.154;23.002;2022-10-31T16:41:46;6.25;;;2.63;;
36629;SDS011;36256;42.154;23.002;2022-10-31T16:44:25;10.60;;;3.15;;
36629;SDS011;36256;42.154;23.002;2022-10-31T16:49:37;9.65;;;3.20;;
36629;SDS011;36256;42.154;23.002;2022-10-31T16:52:04;11.43;;;4.18;;
36629;SDS011;36256;42.154;23.002;2022-10-31T16:54:31;8.68;;;5.38;;
36629;SDS011;36256;42.154;23.002;2022-10-31T16:56:58;13.37;;;5.53;;
36629;SDS011;36256;42.154;23.002;2022-10-31T16:59:26;12.95;;;7.85;;
36629;SDS011;36256;42.154;23.002;2022-10-31T17:01:53;20.33;;;10.00;;
36629;SDS011;36256;42.154;23.002;2022-10-31T17:04:21;12.95;;;5.07;;
36629;SDS011;36256;42.154;23.002;2022-10-31T17:06:48;10.27;;;3.28;;
36629;SDS011;36256;42.154;23.002;2022-10-31T17:09:15;5.93;;;3.60;;
36629;SDS011;36256;42.154;23.002;2022-10-31T17:11:45;14.23;;;4.57;;
36629;SDS011;36256;42.154;23.002;2022-10-31T17:14:15;11.43;;;4.40;;
36629;SDS011;36256;42.154;23.002;2022-10-31T17:16:43;8.05;;;3.60;;
36629;SDS011;36256;42.154;23.002;2022-10-31T17:19:10;10.90;;;3.97;;
36629;SDS011;36256;42.154;23.002;2022-10-31T17:21:37;9.45;;;2.65;;
36629;SDS011;36256;42.154;23.002;2022-10-31T17:24:05;9.07;;;2.85;;
36629;SDS011;36256;42.154;23.002;2022-10-31T17:26:34;8.70;;;2.88;;
36629;SDS011;36256;42.154;23.002;2022-10-31T17:29:00;11.73;;;2.70;;
36629;SDS011;36256;42.154;23.002;2022-10-31T17:31:29;8.35;;;3.08;;
36629;SDS011;36256;42.154;23.002;2022-10-31T17:33:58;9.15;;;3.20;;
36629;SDS011;36256;42.154;23.002;2022-10-31T17:36:29;10.15;;;3.08;;
36629;SDS011;36256;42.154;23.002;2022-10-31T17:38:56;9.10;;;3.13;;
36629;SDS011;36256;42.154;23.002;2022-10-31T17:41:22;8.75;;;2.70;;
36629;SDS011;36256;42.154;23.002;2022-10-31T17:43:53;10.45;;;2.70;;
36629;SDS011;36256;42.154;23.002;2022-10-31T17:46:21;10.35;;;2.50;;
36629;SDS011;36256;42.154;23.002;2022-10-31T17:48:47;8.37;;;2.80;;
36629;SDS011;36256;42.154;23.002;2022-10-31T17:51:14;10.82;;;2.85;;
36629;SDS011;36256;42.154;23.002;2022-10-31T17:53:41;8.47;;;3.30;;
36629;SDS011;36256;42.154;23.002;2022-10-31T17:56:07;9.60;;;3.10;;
36629;SDS011;36256;42.154;23.002;2022-10-31T18:06:05;6.90;;;2.70;;
36629;SDS011;36256;42.154;23.002;2022-10-31T18:08:33;5.82;;;2.92;;
36629;SDS011;36256;42.154;23.002;2022-10-31T18:11:07;8.48;;;2.78;;
36629;SDS011;36256;42.154;23.002;2022-10-31T18:13:36;10.15;;;2.67;;